Terminal Aerodrome Forecast
Issued by NWS North Platte, NE

Home | Current Version | Previous Version | Text Only | Print | Product List | Glossary On
Versions: 1 2 3 4 5 6 7 8 9 10 11 12 13 14 15
000
FTUS43 KLBF 040520
TAFVTN
TAF
KVTN 040520Z 0406/0506 10010KT P6SM SCT120 BKN200
     FM041100 VRB04KT P6SM SCT015 BKN200
     FM041400 14008KT P6SM BKN120
     FM042100 16012KT P6SM SCT070 BKN120 PROB30 0421/0424 3SM +TSRA
      OVC030CB=

USA.gov is the U.S. government's official web portal to all federal, state and local government web resources and services.